Estación Meteorológica Peña el Pijo (Robertgarden) [ 01/30/23 14:40:55 CET ]

Fecha Hora Presion(HPa) Temp (°C) Humedad % Rocio (°C) Viento ( m/s) Direccion Lluvia 1Hora(mm) Lluvia 24H(mm) LLuvia Total(mm)
2012-Nov-21 01:01:19 1008.800 4.6 88 2.8         178.19
2012-Nov-21 02:05:18 1008.800 4.5 89 2.8         178.19
2012-Nov-21 03:01:14 1008.700 4.6 89 2.9         178.19
2012-Nov-21 04:01:17 1008.400 4.1 90 2.6         178.19
2012-Nov-21 05:01:14 1008.400 3.1 90 1.6         178.19
2012-Nov-21 06:01:16 1008.700 2.5 90 1.0         178.19
2012-Nov-21 07:01:15 1009.100 2.5 91 1.1         178.19
2012-Nov-21 08:01:14 1009.300 2.9 92 1.7         178.19
2012-Nov-21 09:01:13 1009.700 3.9 93 2.9         178.19
2012-Nov-21 10:01:13 1010.200 6.6 93 5.5         178.19
2012-Nov-21 11:01:14 1010.100 11.1 82 8.1         178.19
2012-Nov-21 12:01:13 1010.500 12.5 70 7.2         178.19
2012-Nov-21 13:01:15 1009.800 15.5 59 7.5         178.19
2012-Nov-21 14:01:14 1009.400 13.2 61 5.8         178.19
2012-Nov-21 15:01:16 1009.200 14.1 59 6.2         178.19
2012-Nov-21 16:01:11 1009.000 13.9 60 6.3         178.19
2012-Nov-21 17:01:12 1009.400 11.8 65 5.4         178.19
2012-Nov-21 18:01:16 1009.900 10.2 68 4.5         178.19
2012-Nov-21 19:01:12 1010.200 7.8 76 3.8         178.19
2012-Nov-21 20:01:13 1010.500 6.5 82 3.6         178.19
2012-Nov-21 21:01:16 1011.100 5.3 84 2.8         178.19
2012-Nov-21 22:01:12 1011.300 4.5 86 2.3         178.19
2012-Nov-21 23:01:14 1011.500 4.3 88 2.5         178.19

Temperatura Máxima:15°    Temperatura Mínima:
Presión Máxima:1011.500 Hpa    Presión Mínima:1008.400 Hpa


Volver